sensor_id;sensor_type;location;lat;lon;timestamp;P1;durP1;ratioP1;P2;durP2;ratioP2
70414;SDS011;57837;52.064;113.478;2022-12-10T00:02:35;10.63;;;4.43;;
70414;SDS011;57837;52.064;113.478;2022-12-10T00:05:38;7.47;;;3.38;;
70414;SDS011;57837;52.064;113.478;2022-12-10T00:08:42;14.10;;;5.10;;
70414;SDS011;57837;52.064;113.478;2022-12-10T00:11:46;6.80;;;3.08;;
70414;SDS011;57837;52.064;113.478;2022-12-10T00:14:50;8.80;;;4.10;;
70414;SDS011;57837;52.064;113.478;2022-12-10T00:17:54;17.00;;;5.43;;
70414;SDS011;57837;52.064;113.478;2022-12-10T00:20:58;28.08;;;8.70;;
70414;SDS011;57837;52.064;113.478;2022-12-10T00:24:04;51.93;;;12.00;;
70414;SDS011;57837;52.064;113.478;2022-12-10T00:27:08;22.10;;;8.23;;
70414;SDS011;57837;52.064;113.478;2022-12-10T00:30:13;24.38;;;7.00;;
70414;SDS011;57837;52.064;113.478;2022-12-10T00:33:16;41.17;;;15.30;;
70414;SDS011;57837;52.064;113.478;2022-12-10T00:36:22;37.58;;;13.15;;
70414;SDS011;57837;52.064;113.478;2022-12-10T00:39:27;29.73;;;11.43;;
70414;SDS011;57837;52.064;113.478;2022-12-10T00:42:32;23.60;;;10.77;;
70414;SDS011;57837;52.064;113.478;2022-12-10T00:45:35;12.65;;;4.80;;
70414;SDS011;57837;52.064;113.478;2022-12-10T00:48:40;26.20;;;9.65;;
70414;SDS011;57837;52.064;113.478;2022-12-10T00:51:44;27.52;;;11.05;;
70414;SDS011;57837;52.064;113.478;2022-12-10T00:54:48;12.73;;;5.93;;
70414;SDS011;57837;52.064;113.478;2022-12-10T00:57:52;9.73;;;4.50;;
70414;SDS011;57837;52.064;113.478;2022-12-10T01:04:15;15.00;;;6.03;;
70414;SDS011;57837;52.064;113.478;2022-12-10T01:07:20;12.40;;;4.95;;
70414;SDS011;57837;52.064;113.478;2022-12-10T01:10:24;22.73;;;8.20;;
70414;SDS011;57837;52.064;113.478;2022-12-10T01:13:28;29.30;;;8.25;;
70414;SDS011;57837;52.064;113.478;2022-12-10T01:16:32;16.65;;;6.75;;
70414;SDS011;57837;52.064;113.478;2022-12-10T01:19:36;35.40;;;10.48;;
70414;SDS011;57837;52.064;113.478;2022-12-10T01:22:40;35.67;;;12.68;;
70414;SDS011;57837;52.064;113.478;2022-12-10T01:25:44;50.30;;;16.73;;
70414;SDS011;57837;52.064;113.478;2022-12-10T01:28:48;43.70;;;14.57;;
70414;SDS011;57837;52.064;113.478;2022-12-10T01:31:53;42.40;;;17.33;;
70414;SDS011;57837;52.064;113.478;2022-12-10T01:34:57;29.00;;;13.23;;
70414;SDS011;57837;52.064;113.478;2022-12-10T01:38:01;32.33;;;10.75;;
70414;SDS011;57837;52.064;113.478;2022-12-10T01:41:05;21.33;;;8.25;;
70414;SDS011;57837;52.064;113.478;2022-12-10T01:47:14;26.92;;;10.20;;
70414;SDS011;57837;52.064;113.478;2022-12-10T01:50:18;33.28;;;15.05;;
70414;SDS011;57837;52.064;113.478;2022-12-10T01:53:22;84.45;;;28.58;;
70414;SDS011;57837;52.064;113.478;2022-12-10T01:56:26;36.97;;;16.27;;
70414;SDS011;57837;52.064;113.478;2022-12-10T01:59:30;22.88;;;9.52;;
70414;SDS011;57837;52.064;113.478;2022-12-10T02:06:10;27.73;;;11.77;;
70414;SDS011;57837;52.064;113.478;2022-12-10T02:09:38;37.75;;;13.27;;
70414;SDS011;57837;52.064;113.478;2022-12-10T02:16:16;102.75;;;34.67;;
70414;SDS011;57837;52.064;113.478;2022-12-10T02:22:57;163.35;;;47.85;;
70414;SDS011;57837;52.064;113.478;2022-12-10T02:29:26;138.43;;;48.57;;
70414;SDS011;57837;52.064;113.478;2022-12-10T02:32:33;83.45;;;32.97;;
70414;SDS011;57837;52.064;113.478;2022-12-10T02:35:40;36.95;;;15.27;;
70414;SDS011;57837;52.064;113.478;2022-12-10T02:38:44;27.30;;;14.73;;
70414;SDS011;57837;52.064;113.478;2022-12-10T02:41:54;14.32;;;7.43;;
70414;SDS011;57837;52.064;113.478;2022-12-10T02:44:58;18.42;;;8.25;;
70414;SDS011;57837;52.064;113.478;2022-12-10T02:48:05;16.17;;;7.13;;
70414;SDS011;57837;52.064;113.478;2022-12-10T02:51:13;15.45;;;6.10;;
70414;SDS011;57837;52.064;113.478;2022-12-10T02:54:34;13.05;;;4.95;;
70414;SDS011;57837;52.064;113.478;2022-12-10T02:58:03;18.00;;;7.22;;
70414;SDS011;57837;52.064;113.478;2022-12-10T03:01:19;12.67;;;5.40;;
70414;SDS011;57837;52.064;113.478;2022-12-10T03:08:14;13.60;;;4.40;;
70414;SDS011;57837;52.064;113.478;2022-12-10T03:11:18;9.38;;;3.80;;
70414;SDS011;57837;52.064;113.478;2022-12-10T03:14:27;11.07;;;3.83;;
70414;SDS011;57837;52.064;113.478;2022-12-10T03:17:33;14.38;;;4.40;;
70414;SDS011;57837;52.064;113.478;2022-12-10T03:20:39;16.88;;;5.85;;
70414;SDS011;57837;52.064;113.478;2022-12-10T03:23:46;18.60;;;5.60;;
70414;SDS011;57837;52.064;113.478;2022-12-10T03:26:50;19.48;;;5.20;;
70414;SDS011;57837;52.064;113.478;2022-12-10T03:29:56;39.40;;;9.25;;
70414;SDS011;57837;52.064;113.478;2022-12-10T03:33:01;37.45;;;12.98;;
70414;SDS011;57837;52.064;113.478;2022-12-10T03:36:05;11.93;;;4.20;;
70414;SDS011;57837;52.064;113.478;2022-12-10T03:39:11;65.30;;;19.90;;
70414;SDS011;57837;52.064;113.478;2022-12-10T03:42:15;20.83;;;5.47;;
70414;SDS011;57837;52.064;113.478;2022-12-10T03:45:18;21.52;;;3.60;;
70414;SDS011;57837;52.064;113.478;2022-12-10T03:48:22;13.60;;;5.07;;
70414;SDS011;57837;52.064;113.478;2022-12-10T03:51:26;21.38;;;3.28;;
70414;SDS011;57837;52.064;113.478;2022-12-10T03:54:30;16.20;;;3.13;;
70414;SDS011;57837;52.064;113.478;2022-12-10T03:57:34;18.98;;;3.75;;
70414;SDS011;57837;52.064;113.478;2022-12-10T04:00:37;18.23;;;5.37;;
70414;SDS011;57837;52.064;113.478;2022-12-10T04:03:41;16.48;;;5.32;;
70414;SDS011;57837;52.064;113.478;2022-12-10T04:06:46;12.90;;;4.32;;
70414;SDS011;57837;52.064;113.478;2022-12-10T04:09:50;13.75;;;3.97;;
70414;SDS011;57837;52.064;113.478;2022-12-10T04:12:53;8.73;;;2.23;;
70414;SDS011;57837;52.064;113.478;2022-12-10T04:16:16;9.65;;;2.05;;
70414;SDS011;57837;52.064;113.478;2022-12-10T04:19:32;16.33;;;1.85;;
70414;SDS011;57837;52.064;113.478;2022-12-10T04:22:35;10.32;;;2.80;;
70414;SDS011;57837;52.064;113.478;2022-12-10T04:25:56;10.83;;;2.47;;
70414;SDS011;57837;52.064;113.478;2022-12-10T04:29:18;10.90;;;2.17;;
70414;SDS011;57837;52.064;113.478;2022-12-10T04:32:27;6.43;;;1.17;;
70414;SDS011;57837;52.064;113.478;2022-12-10T04:35:31;14.63;;;3.33;;
70414;SDS011;57837;52.064;113.478;2022-12-10T04:38:34;11.27;;;2.90;;
70414;SDS011;57837;52.064;113.478;2022-12-10T04:41:41;8.68;;;2.08;;
70414;SDS011;57837;52.064;113.478;2022-12-10T04:44:46;4.70;;;1.77;;
70414;SDS011;57837;52.064;113.478;2022-12-10T04:47:49;12.40;;;2.10;;
70414;SDS011;57837;52.064;113.478;2022-12-10T04:50:53;15.95;;;1.80;;
70414;SDS011;57837;52.064;113.478;2022-12-10T04:53:56;7.53;;;1.67;;
70414;SDS011;57837;52.064;113.478;2022-12-10T04:56:59;7.85;;;2.30;;
70414;SDS011;57837;52.064;113.478;2022-12-10T05:00:03;8.83;;;2.57;;
70414;SDS011;57837;52.064;113.478;2022-12-10T05:03:07;6.15;;;1.90;;
70414;SDS011;57837;52.064;113.478;2022-12-10T05:06:13;6.47;;;1.65;;
70414;SDS011;57837;52.064;113.478;2022-12-10T05:09:18;8.00;;;2.15;;
70414;SDS011;57837;52.064;113.478;2022-12-10T05:12:22;7.00;;;2.70;;
70414;SDS011;57837;52.064;113.478;2022-12-10T05:15:25;10.65;;;3.40;;
70414;SDS011;57837;52.064;113.478;2022-12-10T05:18:30;10.73;;;3.58;;
70414;SDS011;57837;52.064;113.478;2022-12-10T05:21:34;6.43;;;2.55;;
70414;SDS011;57837;52.064;113.478;2022-12-10T05:24:56;11.77;;;2.40;;
70414;SDS011;57837;52.064;113.478;2022-12-10T05:27:59;9.90;;;2.08;;
70414;SDS011;57837;52.064;113.478;2022-12-10T05:31:02;9.45;;;2.00;;
70414;SDS011;57837;52.064;113.478;2022-12-10T05:34:06;8.97;;;4.10;;
70414;SDS011;57837;52.064;113.478;2022-12-10T05:37:13;7.38;;;2.78;;
70414;SDS011;57837;52.064;113.478;2022-12-10T05:40:17;11.05;;;3.85;;
70414;SDS011;57837;52.064;113.478;2022-12-10T05:43:20;11.55;;;3.05;;
70414;SDS011;57837;52.064;113.478;2022-12-10T05:46:27;22.67;;;2.87;;
70414;SDS011;57837;52.064;113.478;2022-12-10T05:49:32;18.65;;;2.45;;
70414;SDS011;57837;52.064;113.478;2022-12-10T05:52:36;5.15;;;2.13;;
70414;SDS011;57837;52.064;113.478;2022-12-10T05:55:39;7.82;;;2.22;;
70414;SDS011;57837;52.064;113.478;2022-12-10T05:58:44;9.27;;;2.03;;
70414;SDS011;57837;52.064;113.478;2022-12-10T06:01:49;6.45;;;1.83;;
70414;SDS011;57837;52.064;113.478;2022-12-10T06:04:52;5.40;;;1.92;;
70414;SDS011;57837;52.064;113.478;2022-12-10T06:07:55;13.70;;;2.50;;
70414;SDS011;57837;52.064;113.478;2022-12-10T06:11:03;5.82;;;1.98;;
70414;SDS011;57837;52.064;113.478;2022-12-10T06:14:12;10.73;;;2.97;;
70414;SDS011;57837;52.064;113.478;2022-12-10T06:17:15;6.60;;;2.40;;
70414;SDS011;57837;52.064;113.478;2022-12-10T06:20:18;6.97;;;2.43;;
70414;SDS011;57837;52.064;113.478;2022-12-10T06:23:22;14.05;;;3.50;;
70414;SDS011;57837;52.064;113.478;2022-12-10T06:26:26;7.32;;;2.20;;
70414;SDS011;57837;52.064;113.478;2022-12-10T06:29:30;9.07;;;2.05;;
70414;SDS011;57837;52.064;113.478;2022-12-10T06:32:34;13.40;;;2.38;;
70414;SDS011;57837;52.064;113.478;2022-12-10T06:35:37;5.53;;;1.52;;
70414;SDS011;57837;52.064;113.478;2022-12-10T06:38:42;5.90;;;2.03;;
70414;SDS011;57837;52.064;113.478;2022-12-10T06:41:45;7.50;;;2.47;;
70414;SDS011;57837;52.064;113.478;2022-12-10T06:44:49;9.68;;;3.10;;
70414;SDS011;57837;52.064;113.478;2022-12-10T06:47:52;13.98;;;3.97;;
70414;SDS011;57837;52.064;113.478;2022-12-10T06:50:55;11.52;;;3.33;;
70414;SDS011;57837;52.064;113.478;2022-12-10T06:53:59;14.10;;;3.27;;
70414;SDS011;57837;52.064;113.478;2022-12-10T06:57:03;3.95;;;1.40;;
70414;SDS011;57837;52.064;113.478;2022-12-10T07:00:06;6.50;;;2.08;;
70414;SDS011;57837;52.064;113.478;2022-12-10T07:03:10;12.23;;;1.77;;
70414;SDS011;57837;52.064;113.478;2022-12-10T07:06:13;4.47;;;1.77;;
70414;SDS011;57837;52.064;113.478;2022-12-10T07:09:17;8.35;;;2.20;;
70414;SDS011;57837;52.064;113.478;2022-12-10T07:12:20;6.13;;;2.75;;
70414;SDS011;57837;52.064;113.478;2022-12-10T07:15:23;7.97;;;1.70;;
70414;SDS011;57837;52.064;113.478;2022-12-10T07:18:27;6.20;;;2.08;;
70414;SDS011;57837;52.064;113.478;2022-12-10T07:21:32;8.15;;;2.53;;
70414;SDS011;57837;52.064;113.478;2022-12-10T07:24:37;13.05;;;2.10;;
70414;SDS011;57837;52.064;113.478;2022-12-10T07:27:41;5.33;;;1.70;;
70414;SDS011;57837;52.064;113.478;2022-12-10T07:30:44;13.05;;;2.20;;
70414;SDS011;57837;52.064;113.478;2022-12-10T07:33:48;7.95;;;2.35;;
70414;SDS011;57837;52.064;113.478;2022-12-10T07:36:52;6.00;;;2.10;;
70414;SDS011;57837;52.064;113.478;2022-12-10T07:39:58;9.38;;;2.22;;
70414;SDS011;57837;52.064;113.478;2022-12-10T07:43:02;9.52;;;2.70;;
70414;SDS011;57837;52.064;113.478;2022-12-10T07:46:09;7.90;;;2.80;;
70414;SDS011;57837;52.064;113.478;2022-12-10T07:49:21;10.17;;;2.67;;
70414;SDS011;57837;52.064;113.478;2022-12-10T07:52:26;10.00;;;3.65;;
70414;SDS011;57837;52.064;113.478;2022-12-10T07:55:29;6.95;;;3.65;;
70414;SDS011;57837;52.064;113.478;2022-12-10T07:58:33;10.90;;;4.22;;
70414;SDS011;57837;52.064;113.478;2022-12-10T08:01:37;12.48;;;4.70;;
70414;SDS011;57837;52.064;113.478;2022-12-10T08:04:41;18.38;;;5.78;;
70414;SDS011;57837;52.064;113.478;2022-12-10T08:07:44;16.92;;;3.58;;
70414;SDS011;57837;52.064;113.478;2022-12-10T08:10:48;14.67;;;3.07;;
70414;SDS011;57837;52.064;113.478;2022-12-10T08:13:52;21.55;;;5.85;;
70414;SDS011;57837;52.064;113.478;2022-12-10T08:16:59;32.83;;;10.15;;
70414;SDS011;57837;52.064;113.478;2022-12-10T08:20:02;27.03;;;10.03;;
70414;SDS011;57837;52.064;113.478;2022-12-10T08:23:06;29.10;;;8.77;;
70414;SDS011;57837;52.064;113.478;2022-12-10T08:26:10;34.75;;;10.48;;
70414;SDS011;57837;52.064;113.478;2022-12-10T08:29:16;21.15;;;9.48;;
70414;SDS011;57837;52.064;113.478;2022-12-10T08:32:20;16.85;;;4.75;;
70414;SDS011;57837;52.064;113.478;2022-12-10T08:35:24;19.55;;;6.25;;
70414;SDS011;57837;52.064;113.478;2022-12-10T08:38:28;21.45;;;5.95;;
70414;SDS011;57837;52.064;113.478;2022-12-10T08:41:32;13.50;;;4.43;;
70414;SDS011;57837;52.064;113.478;2022-12-10T08:44:36;13.23;;;5.43;;
70414;SDS011;57837;52.064;113.478;2022-12-10T08:47:40;15.30;;;6.10;;
70414;SDS011;57837;52.064;113.478;2022-12-10T08:50:43;25.77;;;10.07;;
70414;SDS011;57837;52.064;113.478;2022-12-10T08:53:47;24.90;;;8.93;;
70414;SDS011;57837;52.064;113.478;2022-12-10T08:56:50;23.27;;;8.35;;
70414;SDS011;57837;52.064;113.478;2022-12-10T08:59:54;25.05;;;10.57;;
70414;SDS011;57837;52.064;113.478;2022-12-10T09:02:57;22.40;;;8.20;;
70414;SDS011;57837;52.064;113.478;2022-12-10T09:06:02;43.50;;;14.52;;
70414;SDS011;57837;52.064;113.478;2022-12-10T09:09:08;31.33;;;11.65;;
70414;SDS011;57837;52.064;113.478;2022-12-10T09:12:11;17.67;;;5.90;;
70414;SDS011;57837;52.064;113.478;2022-12-10T09:15:14;21.23;;;7.57;;
70414;SDS011;57837;52.064;113.478;2022-12-10T09:18:18;32.10;;;9.85;;
70414;SDS011;57837;52.064;113.478;2022-12-10T09:21:21;31.53;;;10.70;;
70414;SDS011;57837;52.064;113.478;2022-12-10T09:24:25;32.40;;;11.57;;
70414;SDS011;57837;52.064;113.478;2022-12-10T09:27:29;32.17;;;11.38;;
70414;SDS011;57837;52.064;113.478;2022-12-10T09:30:32;32.45;;;8.52;;
70414;SDS011;57837;52.064;113.478;2022-12-10T09:33:36;22.20;;;7.70;;
70414;SDS011;57837;52.064;113.478;2022-12-10T09:36:40;22.52;;;8.52;;
70414;SDS011;57837;52.064;113.478;2022-12-10T09:39:44;24.05;;;8.60;;
70414;SDS011;57837;52.064;113.478;2022-12-10T09:46:02;31.33;;;10.40;;
70414;SDS011;57837;52.064;113.478;2022-12-10T09:52:48;11.03;;;5.40;;
70414;SDS011;57837;52.064;113.478;2022-12-10T09:55:54;12.00;;;6.05;;
70414;SDS011;57837;52.064;113.478;2022-12-10T09:58:59;23.33;;;6.90;;
70414;SDS011;57837;52.064;113.478;2022-12-10T10:02:21;12.68;;;6.40;;
70414;SDS011;57837;52.064;113.478;2022-12-10T10:05:26;17.33;;;6.13;;
70414;SDS011;57837;52.064;113.478;2022-12-10T10:08:42;17.55;;;6.82;;
70414;SDS011;57837;52.064;113.478;2022-12-10T10:11:50;15.70;;;6.15;;
70414;SDS011;57837;52.064;113.478;2022-12-10T10:14:54;16.37;;;6.33;;
70414;SDS011;57837;52.064;113.478;2022-12-10T10:17:59;18.00;;;7.80;;
70414;SDS011;57837;52.064;113.478;2022-12-10T10:21:28;21.13;;;6.95;;
70414;SDS011;57837;52.064;113.478;2022-12-10T10:24:40;17.43;;;6.80;;
70414;SDS011;57837;52.064;113.478;2022-12-10T10:27:48;25.60;;;9.10;;
70414;SDS011;57837;52.064;113.478;2022-12-10T10:30:51;15.45;;;5.75;;
70414;SDS011;57837;52.064;113.478;2022-12-10T10:33:58;11.77;;;3.92;;
70414;SDS011;57837;52.064;113.478;2022-12-10T10:37:03;20.55;;;7.60;;
70414;SDS011;57837;52.064;113.478;2022-12-10T10:40:20;22.13;;;7.38;;
70414;SDS011;57837;52.064;113.478;2022-12-10T10:43:27;25.50;;;9.00;;
70414;SDS011;57837;52.064;113.478;2022-12-10T10:46:51;28.53;;;8.63;;
70414;SDS011;57837;52.064;113.478;2022-12-10T10:49:55;30.88;;;8.68;;
70414;SDS011;57837;52.064;113.478;2022-12-10T10:52:59;29.25;;;9.63;;
70414;SDS011;57837;52.064;113.478;2022-12-10T10:56:12;22.30;;;7.07;;
70414;SDS011;57837;52.064;113.478;2022-12-10T10:59:30;18.80;;;6.68;;
70414;SDS011;57837;52.064;113.478;2022-12-10T11:02:36;11.50;;;4.60;;
70414;SDS011;57837;52.064;113.478;2022-12-10T11:05:43;12.63;;;5.20;;
70414;SDS011;57837;52.064;113.478;2022-12-10T11:08:50;10.30;;;3.78;;
70414;SDS011;57837;52.064;113.478;2022-12-10T11:12:00;18.45;;;6.75;;
70414;SDS011;57837;52.064;113.478;2022-12-10T11:18:35;21.50;;;5.13;;
70414;SDS011;57837;52.064;113.478;2022-12-10T11:21:40;15.48;;;5.30;;
70414;SDS011;57837;52.064;113.478;2022-12-10T11:24:45;26.33;;;9.50;;
70414;SDS011;57837;52.064;113.478;2022-12-10T11:38:43;36.40;;;10.43;;
70414;SDS011;57837;52.064;113.478;2022-12-10T11:48:44;54.58;;;17.73;;
70414;SDS011;57837;52.064;113.478;2022-12-10T11:58:57;75.10;;;23.33;;
70414;SDS011;57837;52.064;113.478;2022-12-10T12:12:44;33.30;;;11.57;;
70414;SDS011;57837;52.064;113.478;2022-12-10T12:19:02;23.35;;;6.80;;
70414;SDS011;57837;52.064;113.478;2022-12-10T12:22:22;30.80;;;9.70;;
70414;SDS011;57837;52.064;113.478;2022-12-10T12:25:53;12.77;;;4.63;;
70414;SDS011;57837;52.064;113.478;2022-12-10T12:29:17;6.68;;;3.03;;
70414;SDS011;57837;52.064;113.478;2022-12-10T12:32:25;13.55;;;5.03;;
70414;SDS011;57837;52.064;113.478;2022-12-10T12:38:55;13.57;;;5.30;;
70414;SDS011;57837;52.064;113.478;2022-12-10T12:42:17;9.02;;;3.90;;
70414;SDS011;57837;52.064;113.478;2022-12-10T12:45:53;16.35;;;4.03;;
70414;SDS011;57837;52.064;113.478;2022-12-10T12:49:01;15.98;;;5.05;;
70414;SDS011;57837;52.064;113.478;2022-12-10T12:52:29;15.80;;;5.03;;
70414;SDS011;57837;52.064;113.478;2022-12-10T12:55:47;8.65;;;2.95;;
70414;SDS011;57837;52.064;113.478;2022-12-10T13:06:23;10.02;;;4.25;;
70414;SDS011;57837;52.064;113.478;2022-12-10T13:09:28;16.43;;;4.80;;
70414;SDS011;57837;52.064;113.478;2022-12-10T13:12:45;15.20;;;4.82;;
70414;SDS011;57837;52.064;113.478;2022-12-10T13:15:50;17.02;;;5.78;;
70414;SDS011;57837;52.064;113.478;2022-12-10T13:19:15;13.43;;;5.25;;
70414;SDS011;57837;52.064;113.478;2022-12-10T13:29:10;16.95;;;4.70;;
70414;SDS011;57837;52.064;113.478;2022-12-10T13:32:24;13.60;;;5.00;;
70414;SDS011;57837;52.064;113.478;2022-12-10T13:35:50;20.80;;;7.28;;
70414;SDS011;57837;52.064;113.478;2022-12-10T13:45:33;14.02;;;5.82;;
70414;SDS011;57837;52.064;113.478;2022-12-10T13:48:38;12.43;;;5.25;;
70414;SDS011;57837;52.064;113.478;2022-12-10T13:51:47;24.35;;;7.20;;
70414;SDS011;57837;52.064;113.478;2022-12-10T14:01:50;13.25;;;4.90;;
70414;SDS011;57837;52.064;113.478;2022-12-10T14:08:26;10.75;;;4.82;;
70414;SDS011;57837;52.064;113.478;2022-12-10T14:11:37;15.95;;;5.70;;
70414;SDS011;57837;52.064;113.478;2022-12-10T14:14:44;8.50;;;3.43;;
70414;SDS011;57837;52.064;113.478;2022-12-10T14:18:13;10.52;;;4.28;;
70414;SDS011;57837;52.064;113.478;2022-12-10T14:21:17;21.63;;;6.57;;
70414;SDS011;57837;52.064;113.478;2022-12-10T14:24:25;16.00;;;5.50;;
70414;SDS011;57837;52.064;113.478;2022-12-10T14:27:33;10.68;;;2.88;;
70414;SDS011;57837;52.064;113.478;2022-12-10T14:30:41;24.92;;;9.23;;
70414;SDS011;57837;52.064;113.478;2022-12-10T14:33:46;25.70;;;6.97;;
70414;SDS011;57837;52.064;113.478;2022-12-10T14:36:53;28.60;;;8.87;;
70414;SDS011;57837;52.064;113.478;2022-12-10T14:39:58;20.52;;;7.20;;
70414;SDS011;57837;52.064;113.478;2022-12-10T14:43:05;25.20;;;7.55;;
70414;SDS011;57837;52.064;113.478;2022-12-10T14:46:22;35.73;;;10.17;;
70414;SDS011;57837;52.064;113.478;2022-12-10T14:49:28;32.65;;;12.57;;
70414;SDS011;57837;52.064;113.478;2022-12-10T14:52:32;39.78;;;14.02;;
70414;SDS011;57837;52.064;113.478;2022-12-10T14:55:41;46.97;;;16.50;;
70414;SDS011;57837;52.064;113.478;2022-12-10T14:58:49;24.00;;;9.05;;
70414;SDS011;57837;52.064;113.478;2022-12-10T15:02:01;32.08;;;11.13;;
70414;SDS011;57837;52.064;113.478;2022-12-10T15:05:19;20.20;;;7.35;;
70414;SDS011;57837;52.064;113.478;2022-12-10T15:08:28;25.93;;;7.10;;
70414;SDS011;57837;52.064;113.478;2022-12-10T15:11:32;27.50;;;5.78;;
70414;SDS011;57837;52.064;113.478;2022-12-10T15:14:36;15.40;;;5.47;;
70414;SDS011;57837;52.064;113.478;2022-12-10T15:17:40;19.33;;;5.63;;
70414;SDS011;57837;52.064;113.478;2022-12-10T15:24:40;17.27;;;6.15;;
70414;SDS011;57837;52.064;113.478;2022-12-10T15:27:55;20.13;;;4.70;;
70414;SDS011;57837;52.064;113.478;2022-12-10T15:34:33;13.25;;;5.75;;
70414;SDS011;57837;52.064;113.478;2022-12-10T15:37:42;19.02;;;5.95;;
70414;SDS011;57837;52.064;113.478;2022-12-10T15:40:47;13.13;;;5.53;;
70414;SDS011;57837;52.064;113.478;2022-12-10T15:43:55;15.65;;;4.38;;
70414;SDS011;57837;52.064;113.478;2022-12-10T15:50:12;8.53;;;2.70;;
70414;SDS011;57837;52.064;113.478;2022-12-10T15:53:19;18.67;;;5.53;;
70414;SDS011;57837;52.064;113.478;2022-12-10T15:56:34;15.38;;;4.90;;
70414;SDS011;57837;52.064;113.478;2022-12-10T15:59:38;17.95;;;5.40;;
70414;SDS011;57837;52.064;113.478;2022-12-10T16:02:48;12.35;;;3.75;;
70414;SDS011;57837;52.064;113.478;2022-12-10T16:05:57;9.40;;;3.22;;
70414;SDS011;57837;52.064;113.478;2022-12-10T16:09:00;17.38;;;5.40;;
70414;SDS011;57837;52.064;113.478;2022-12-10T16:12:03;15.53;;;3.83;;
70414;SDS011;57837;52.064;113.478;2022-12-10T16:15:10;18.45;;;5.03;;
70414;SDS011;57837;52.064;113.478;2022-12-10T16:18:24;10.50;;;3.13;;
70414;SDS011;57837;52.064;113.478;2022-12-10T16:21:35;9.03;;;2.90;;
70414;SDS011;57837;52.064;113.478;2022-12-10T16:24:39;7.00;;;2.30;;
70414;SDS011;57837;52.064;113.478;2022-12-10T16:27:46;3.47;;;1.50;;
70414;SDS011;57837;52.064;113.478;2022-12-10T16:30:50;5.90;;;2.30;;
70414;SDS011;57837;52.064;113.478;2022-12-10T16:33:58;11.50;;;2.78;;
70414;SDS011;57837;52.064;113.478;2022-12-10T16:37:01;9.60;;;2.25;;
70414;SDS011;57837;52.064;113.478;2022-12-10T16:40:06;13.32;;;3.38;;
70414;SDS011;57837;52.064;113.478;2022-12-10T16:43:17;13.70;;;4.83;;
70414;SDS011;57837;52.064;113.478;2022-12-10T16:46:22;6.13;;;2.33;;
70414;SDS011;57837;52.064;113.478;2022-12-10T16:49:26;9.70;;;2.63;;
70414;SDS011;57837;52.064;113.478;2022-12-10T16:52:30;16.20;;;4.30;;
70414;SDS011;57837;52.064;113.478;2022-12-10T16:55:34;7.18;;;2.10;;
70414;SDS011;57837;52.064;113.478;2022-12-10T16:58:38;6.63;;;2.17;;
70414;SDS011;57837;52.064;113.478;2022-12-10T17:01:42;10.98;;;3.53;;
70414;SDS011;57837;52.064;113.478;2022-12-10T17:04:46;7.82;;;2.70;;
70414;SDS011;57837;52.064;113.478;2022-12-10T17:07:49;16.27;;;3.17;;
70414;SDS011;57837;52.064;113.478;2022-12-10T17:10:53;8.88;;;2.08;;
70414;SDS011;57837;52.064;113.478;2022-12-10T17:14:19;7.07;;;2.13;;
70414;SDS011;57837;52.064;113.478;2022-12-10T17:17:25;12.02;;;2.92;;
70414;SDS011;57837;52.064;113.478;2022-12-10T17:20:30;9.20;;;3.03;;
70414;SDS011;57837;52.064;113.478;2022-12-10T17:23:33;8.40;;;2.60;;
70414;SDS011;57837;52.064;113.478;2022-12-10T17:26:37;10.40;;;2.53;;
70414;SDS011;57837;52.064;113.478;2022-12-10T17:29:45;11.93;;;2.63;;
70414;SDS011;57837;52.064;113.478;2022-12-10T17:32:56;4.32;;;1.55;;
70414;SDS011;57837;52.064;113.478;2022-12-10T17:35:59;7.72;;;2.20;;
70414;SDS011;57837;52.064;113.478;2022-12-10T17:39:02;11.82;;;2.97;;
70414;SDS011;57837;52.064;113.478;2022-12-10T17:42:07;10.30;;;2.60;;
70414;SDS011;57837;52.064;113.478;2022-12-10T17:45:13;6.70;;;1.93;;
70414;SDS011;57837;52.064;113.478;2022-12-10T17:48:23;3.00;;;1.45;;
70414;SDS011;57837;52.064;113.478;2022-12-10T17:51:27;5.25;;;1.20;;
70414;SDS011;57837;52.064;113.478;2022-12-10T17:54:31;4.50;;;1.13;;
70414;SDS011;57837;52.064;113.478;2022-12-10T17:57:34;7.47;;;1.25;;
70414;SDS011;57837;52.064;113.478;2022-12-10T18:00:39;3.22;;;1.10;;
70414;SDS011;57837;52.064;113.478;2022-12-10T18:03:43;5.88;;;2.05;;
70414;SDS011;57837;52.064;113.478;2022-12-10T18:06:47;6.97;;;1.40;;
70414;SDS011;57837;52.064;113.478;2022-12-10T18:09:50;5.28;;;2.45;;
70414;SDS011;57837;52.064;113.478;2022-12-10T18:12:53;4.28;;;1.50;;
70414;SDS011;57837;52.064;113.478;2022-12-10T18:15:57;5.33;;;1.60;;
70414;SDS011;57837;52.064;113.478;2022-12-10T18:19:02;4.90;;;1.20;;
70414;SDS011;57837;52.064;113.478;2022-12-10T18:22:10;10.02;;;1.90;;
70414;SDS011;57837;52.064;113.478;2022-12-10T18:25:14;5.27;;;1.53;;
70414;SDS011;57837;52.064;113.478;2022-12-10T18:31:29;7.53;;;2.42;;
70414;SDS011;57837;52.064;113.478;2022-12-10T18:34:34;4.90;;;1.70;;
70414;SDS011;57837;52.064;113.478;2022-12-10T18:37:38;3.60;;;1.60;;
70414;SDS011;57837;52.064;113.478;2022-12-10T18:40:42;3.20;;;1.48;;
70414;SDS011;57837;52.064;113.478;2022-12-10T18:43:47;4.63;;;2.03;;
70414;SDS011;57837;52.064;113.478;2022-12-10T18:46:53;9.63;;;2.13;;
70414;SDS011;57837;52.064;113.478;2022-12-10T18:49:58;5.85;;;1.58;;
70414;SDS011;57837;52.064;113.478;2022-12-10T18:53:02;9.05;;;1.67;;
70414;SDS011;57837;52.064;113.478;2022-12-10T18:56:06;3.37;;;1.40;;
70414;SDS011;57837;52.064;113.478;2022-12-10T18:59:13;3.75;;;1.42;;
70414;SDS011;57837;52.064;113.478;2022-12-10T19:02:19;9.40;;;2.13;;
70414;SDS011;57837;52.064;113.478;2022-12-10T19:05:23;2.53;;;0.63;;
70414;SDS011;57837;52.064;113.478;2022-12-10T19:08:27;4.07;;;0.98;;
70414;SDS011;57837;52.064;113.478;2022-12-10T19:11:31;3.05;;;1.00;;
70414;SDS011;57837;52.064;113.478;2022-12-10T19:14:35;3.35;;;1.92;;
70414;SDS011;57837;52.064;113.478;2022-12-10T19:17:39;5.30;;;1.53;;
70414;SDS011;57837;52.064;113.478;2022-12-10T19:20:44;4.82;;;1.52;;
70414;SDS011;57837;52.064;113.478;2022-12-10T19:23:47;4.13;;;1.60;;
70414;SDS011;57837;52.064;113.478;2022-12-10T19:26:51;3.90;;;2.00;;
70414;SDS011;57837;52.064;113.478;2022-12-10T19:29:55;5.10;;;1.67;;
70414;SDS011;57837;52.064;113.478;2022-12-10T19:32:59;5.40;;;1.60;;
70414;SDS011;57837;52.064;113.478;2022-12-10T19:36:03;5.78;;;2.20;;
70414;SDS011;57837;52.064;113.478;2022-12-10T19:39:14;10.60;;;2.15;;
70414;SDS011;57837;52.064;113.478;2022-12-10T19:42:19;9.43;;;2.42;;
70414;SDS011;57837;52.064;113.478;2022-12-10T19:45:23;6.13;;;2.17;;
70414;SDS011;57837;52.064;113.478;2022-12-10T19:48:27;7.43;;;1.40;;
70414;SDS011;57837;52.064;113.478;2022-12-10T19:51:36;12.90;;;3.33;;
70414;SDS011;57837;52.064;113.478;2022-12-10T19:54:40;13.25;;;4.18;;
70414;SDS011;57837;52.064;113.478;2022-12-10T19:57:47;12.00;;;3.73;;
70414;SDS011;57837;52.064;113.478;2022-12-10T20:00:50;6.60;;;2.45;;